KCDH/CDH METAR and TAF weather

Enter ICAO airport designator
Station Type Date Time Source
KCDH METAR 2021/05/11 17:35 UTC NOAA

KCDH 111735Z AUTO 06006KT 10SM OVC010 16/15 A3009 RMK AO2


Station Type Date Time Source
KCDH Decoded METAR 2021/05/11 17:35 UTC NOAA

Camden / Harrell Field, AR, United States (KCDH) 33-37N 092-46W
May 11, 2021 - 01:35 PM EDT / 2021.05.11 1735 UTC
Wind: from the ENE (060 degrees) at 7 MPH (6 KT):0
Visibility: 10 mile(s):0
Sky conditions: overcast
Temperature: 60 F (16 C)
Dew Point: 59 F (15 C)
Relative Humidity: 93%
Pressure (altimeter): 30.09 in. Hg (1018 hPa)
ob: KCDH 111735Z AUTO 06006KT 10SM OVC010 16/15 A3009 RMK AO2
cycle: 17

Station Type Date Time Source
KCDH TAF UTC NOAA

Error!

Example: see airport list